Time;durP1;ratioP1;P1;durP2;ratioP2;P2;SDS_P1;SDS_P2;PMS_P1;PMS_P2;Temp;Humidity;BMP_temperature;BMP_pressure;BME280_temperature;BME280_humidity;BME280_pressure;Samples;Min_cycle;Max_cycle;Signal;HPM_P1;HPM_P2
2023/05/22 00:01:32;;;;;;;14.53;12.40;;;;;;;18.27;58.88;95793.69;5009232;28;20286;-68
2023/05/22 00:03:57;;;;;;;14.20;12.90;;;;;;;18.23;58.79;95797.56;5009441;28;20172;-69
2023/05/22 00:06:23;;;;;;;13.70;12.30;;;;;;;18.20;59.13;95793.34;5009212;28;20301;-69
2023/05/22 00:08:48;;;;;;;13.73;12.43;;;;;;;18.11;59.13;95787.97;5009295;28;20689;-70
2023/05/22 00:11:14;;;;;;;12.30;11.20;;;;;;;17.99;59.71;95787.19;5009150;28;20179;-69
2023/05/22 00:13:39;;;;;;;13.60;12.30;;;;;;;18.00;59.61;95791.53;5008882;28;20358;-68
2023/05/22 00:16:05;;;;;;;13.77;12.33;;;;;;;18.00;60.00;95794.19;5008995;28;20196;-69
2023/05/22 00:18:31;;;;;;;14.23;12.80;;;;;;;18.04;59.56;95798.25;5009199;28;20172;-70
2023/05/22 00:20:57;;;;;;;20.70;12.50;;;;;;;17.94;59.96;95778.75;5008949;28;20184;-70
2023/05/22 00:23:23;;;;;;;15.90;14.40;;;;;;;17.92;59.86;95786.00;5008853;28;20183;-69
2023/05/22 00:25:49;;;;;;;14.17;12.47;;;;;;;17.88;59.86;95782.78;5008722;28;20327;-69
2023/05/22 00:28:15;;;;;;;17.93;14.67;;;;;;;17.94;60.03;95782.25;5008947;28;20416;-69
2023/05/22 00:30:40;;;;;;;15.70;12.60;;;;;;;17.88;59.92;95774.81;5008773;28;20413;-70
2023/05/22 00:33:05;;;;;;;20.97;12.50;;;;;;;17.79;60.16;95786.16;5008690;28;20172;-68
2023/05/22 00:35:31;;;;;;;21.53;12.37;;;;;;;17.81;60.09;95778.94;5007368;28;20215;-68
2023/05/22 00:37:56;;;;;;;19.37;12.80;;;;;;;17.77;60.25;95782.78;5008808;28;20188;-70
2023/05/22 00:40:22;;;;;;;24.90;13.37;;;;;;;17.68;60.42;95779.06;5023578;28;20191;-69
2023/05/22 00:42:47;;;;;;;19.50;12.97;;;;;;;17.75;60.68;95785.56;5028319;28;20254;-69
2023/05/22 00:45:13;;;;;;;14.13;12.70;;;;;;;17.72;60.45;95787.63;5027754;28;20686;-69
2023/05/22 00:47:39;;;;;;;24.13;14.30;;;;;;;17.71;60.57;95785.94;5028119;28;20453;-69
2023/05/22 00:50:06;;;;;;;13.80;12.50;;;;;;;17.71;60.41;95781.47;5028218;28;20419;-70
2023/05/22 00:52:38;;;;;;;16.63;13.50;;;;;;;17.72;60.56;95787.63;5028139;28;20441;-69
2023/05/22 00:55:05;;;;;;;13.63;12.27;;;;;;;17.70;60.29;95781.59;5027686;28;20520;-71
2023/05/22 00:57:32;;;;;;;14.00;12.47;;;;;;;17.72;60.47;95788.47;5028309;28;20414;-69
2023/05/22 00:59:59;;;;;;;15.20;13.70;;;;;;;17.78;59.97;95793.25;5027919;28;20421;-69
2023/05/22 01:02:24;;;;;;;19.20;13.00;;;;;;;17.71;60.20;95789.41;5027980;28;20403;-70
2023/05/22 01:04:50;;;;;;;14.03;12.73;;;;;;;17.53;60.91;95790.94;5027650;28;20930;-70
2023/05/22 01:07:16;;;;;;;18.83;12.43;;;;;;;17.57;60.38;95784.41;5043370;28;20551;-69
2023/05/22 01:09:43;;;;;;;20.70;13.03;;;;;;;17.54;60.39;95792.63;5027754;28;20409;-68
2023/05/22 01:12:23;;;;;;;15.40;13.70;;;;;;;17.47;61.10;95794.09;5027838;28;20203;-69
2023/05/22 01:14:57;;;;;;;21.20;14.73;;;;;;;17.41;61.15;95794.56;5027375;28;20465;-68
2023/05/22 01:17:52;;;;;;;14.30;13.00;;;;;;;17.44;61.01;95784.56;5027628;28;20418;-69
2023/05/22 01:20:36;;;;;;;14.60;12.57;;;;;;;17.46;60.67;95787.94;5027824;28;20798;-69
2023/05/22 01:23:22;;;;;;;13.23;11.90;;;;;;;17.40;61.09;95796.38;5027796;28;21027;-68
2023/05/22 01:26:07;;;;;;;14.77;13.27;;;;;;;17.34;61.14;95796.91;5027666;28;20841;-69
2023/05/22 01:28:38;;;;;;;20.27;12.63;;;;;;;17.32;60.92;95798.84;5027516;28;20414;-69
2023/05/22 01:31:18;;;;;;;15.93;12.73;;;;;;;17.35;60.27;95799.41;5027620;28;20483;-69
2023/05/22 01:33:59;;;;;;;15.80;14.13;;;;;;;17.31;60.85;95799.78;5027274;28;20469;-69
2023/05/22 01:36:28;;;;;;;15.33;13.47;;;;;;;17.35;60.55;95790.63;5027541;28;20432;-71
2023/05/22 01:38:54;;;;;;;15.03;13.63;;;;;;;17.34;60.43;95799.56;5024370;28;20419;-69
2023/05/22 01:41:20;;;;;;;22.50;13.77;;;;;;;17.25;60.96;95795.00;5007596;28;20518;-69
2023/05/22 01:43:46;;;;;;;14.63;13.13;;;;;;;17.22;60.80;95808.47;5007544;28;20486;-71
2023/05/22 01:46:12;;;;;;;14.90;13.30;;;;;;;17.19;61.22;95808.72;5007277;28;20450;-69
2023/05/22 01:48:37;;;;;;;16.00;14.53;;;;;;;17.24;60.72;95812.69;5007718;28;20854;-69
2023/05/22 01:51:23;;;;;;;14.47;13.00;;;;;;;17.19;61.25;95812.22;5007731;28;20699;-69
2023/05/22 01:54:04;;;;;;;15.50;13.07;;;;;;;17.17;61.18;95813.31;5007125;28;20200;-69
2023/05/22 01:56:45;;;;;;;14.93;12.63;;;;;;;17.28;60.43;95816.78;5007310;28;20441;-69
2023/05/22 01:59:36;;;;;;;14.27;12.77;;;;;;;17.24;60.80;95815.34;5007485;28;20406;-69
2023/05/22 02:02:04;;;;;;;18.00;13.07;;;;;;;17.23;60.55;95810.19;5007271;28;20422;-68
2023/05/22 02:04:31;;;;;;;14.70;13.20;;;;;;;17.16;61.16;95816.94;5006734;28;20419;-70
2023/05/22 02:06:59;;;;;;;14.90;13.40;;;;;;;17.02;61.46;95813.56;5011503;28;20468;-69
2023/05/22 02:09:29;;;;;;;15.00;13.33;;;;;;;17.06;60.93;95814.19;5014964;28;20422;-69
2023/05/22 02:11:55;;;;;;;15.40;12.10;;;;;;;17.07;61.27;95815.84;5026857;28;20768;-69
2023/05/22 02:14:21;;;;;;;15.47;13.87;;;;;;;16.94;61.30;95813.34;5015180;28;20457;-70
2023/05/22 02:16:46;;;;;;;15.43;13.10;;;;;;;16.89;61.74;95813.69;5026810;28;20543;-69
2023/05/22 02:19:14;;;;;;;14.10;12.70;;;;;;;16.90;61.84;95817.19;5026884;28;20419;-69
2023/05/22 02:21:39;;;;;;;16.23;14.47;;;;;;;16.88;61.69;95819.94;5026041;28;20326;-71
2023/05/22 02:24:05;;;;;;;15.77;13.23;;;;;;;16.94;61.42;95813.34;5030656;28;20894;-70
2023/05/22 02:26:30;;;;;;;17.70;14.80;;;;;;;16.72;61.88;95816.75;5018199;28;20187;-69
2023/05/22 02:28:56;;;;;;;16.00;14.07;;;;;;;16.67;62.58;95816.28;5024962;28;20186;-69
2023/05/22 02:31:21;;;;;;;15.40;13.27;;;;;;;16.63;62.90;95812.19;5019322;28;20185;-69
2023/05/22 02:33:47;;;;;;;20.83;15.50;;;;;;;16.59;62.80;95811.59;5027270;28;20730;-69
2023/05/22 02:36:13;;;;;;;18.23;14.00;;;;;;;16.57;62.72;95815.31;5018875;28;20203;-69
2023/05/22 02:38:39;;;;;;;15.57;13.87;;;;;;;16.56;62.53;95803.03;5025740;28;20187;-70
2023/05/22 02:41:04;;;;;;;15.77;14.23;;;;;;;16.56;63.14;95814.47;5006869;28;20180;-69
2023/05/22 02:43:30;;;;;;;15.57;13.93;;;;;;;16.50;63.19;95807.00;5020834;28;20171;-70
2023/05/22 02:45:55;;;;;;;17.93;14.40;;;;;;;16.64;62.40;95808.59;5018176;28;20252;-69
2023/05/22 02:48:21;;;;;;;18.20;13.83;;;;;;;16.56;63.14;95809.19;5026730;28;20186;-68
2023/05/22 02:50:49;;;;;;;19.63;13.80;;;;;;;16.55;62.62;95807.47;5026767;28;20175;-69
2023/05/22 02:53:15;;;;;;;14.70;13.37;;;;;;;16.63;62.33;95805.09;5030654;28;20242;-70
2023/05/22 02:55:42;;;;;;;17.40;14.37;;;;;;;16.66;62.34;95807.50;5024300;28;20435;-69
2023/05/22 02:58:10;;;;;;;17.20;14.33;;;;;;;16.56;62.85;95806.53;5026010;28;20909;-69
2023/05/22 03:00:42;;;;;;;15.07;13.50;;;;;;;16.55;62.63;95807.47;5030485;28;20421;-68
2023/05/22 03:03:07;;;;;;;18.93;15.70;;;;;;;16.64;62.67;95816.53;5030326;28;20415;-70
2023/05/22 03:05:33;;;;;;;19.67;14.23;;;;;;;16.51;63.16;95819.25;5022512;28;20469;-68
2023/05/22 03:07:58;;;;;;;21.83;14.40;;;;;;;16.68;62.25;95821.47;5038165;28;20237;-69
2023/05/22 03:10:23;;;;;;;15.93;14.23;;;;;;;16.69;62.28;95825.78;5023139;28;20171;-68
2023/05/22 03:12:50;;;;;;;21.73;15.10;;;;;;;16.62;62.20;95837.00;5031187;28;20559;-69
2023/05/22 03:15:19;;;;;;;21.60;15.20;;;;;;;16.61;62.35;95827.38;5031094;28;20216;-70
2023/05/22 03:17:44;;;;;;;15.87;14.37;;;;;;;16.59;62.51;95835.44;5031033;28;20411;-69
2023/05/22 03:20:15;;;;;;;15.43;13.83;;;;;;;16.41;62.77;95837.66;5029153;28;20461;-69
2023/05/22 03:22:46;;;;;;;19.00;14.27;;;;;;;16.35;62.64;95839.97;5027849;28;20179;-69
2023/05/22 03:25:12;;;;;;;16.23;13.80;;;;;;;16.31;62.59;95836.69;5021223;28;20440;-70
2023/05/22 03:27:39;;;;;;;22.20;15.10;;;;;;;16.40;62.63;95845.75;5029841;28;20816;-70
2023/05/22 03:30:06;;;;;;;15.73;14.33;;;;;;;16.38;63.15;95843.22;5031209;28;20187;-69
2023/05/22 03:32:31;;;;;;;17.90;14.30;;;;;;;16.25;63.78;95843.31;5034968;28;20431;-70
2023/05/22 03:34:57;;;;;;;17.53;14.50;;;;;;;16.21;64.06;95843.66;5025007;28;20765;-69
2023/05/22 03:37:23;;;;;;;19.27;17.40;;;;;;;16.24;64.13;95841.59;5021578;28;20176;-69
2023/05/22 03:39:48;;;;;;;17.23;14.93;;;;;;;16.16;64.50;95843.13;5028545;28;20186;-69
2023/05/22 03:42:15;;;;;;;22.53;14.93;;;;;;;16.14;64.56;95845.06;5036105;28;20597;-69
2023/05/22 03:44:40;;;;;;;28.23;16.80;;;;;;;16.19;64.33;95843.75;5030214;28;20196;-69
2023/05/22 03:47:05;;;;;;;26.33;16.43;;;;;;;16.18;64.27;95838.56;5029653;28;20907;-69
2023/05/22 03:49:31;;;;;;;24.67;15.00;;;;;;;16.25;63.57;95843.31;5029547;28;20175;-69
2023/05/22 03:51:56;;;;;;;25.90;16.80;;;;;;;16.30;63.45;95838.50;5029470;28;20207;-69
2023/05/22 03:54:22;;;;;;;18.27;14.90;;;;;;;16.23;63.66;95845.22;5028773;28;20302;-69
2023/05/22 03:56:48;;;;;;;19.27;15.87;;;;;;;16.41;63.02;95831.53;5029364;28;20186;-69
2023/05/22 03:59:14;;;;;;;23.70;14.90;;;;;;;16.45;62.41;95833.84;5029523;28;20631;-69
2023/05/22 04:01:39;;;;;;;15.37;13.80;;;;;;;16.50;62.05;95836.13;5029402;28;20418;-69
2023/05/22 04:04:04;;;;;;;26.53;14.80;;;;;;;16.34;62.77;95841.75;5029049;28;20167;-70
2023/05/22 04:06:32;;;;;;;38.20;17.20;;;;;;;16.29;63.28;95839.44;5029246;28;20544;-69
2023/05/22 04:08:58;;;;;;;25.33;15.00;;;;;;;16.27;63.50;95835.22;5029835;28;20667;-68
2023/05/22 04:11:23;;;;;;;21.63;14.43;;;;;;;16.46;62.62;95839.97;5029715;28;20411;-70
2023/05/22 04:13:52;;;;;;;19.03;14.67;;;;;;;16.37;62.84;95843.31;5028814;28;20651;-70
2023/05/22 04:16:17;;;;;;;20.93;15.67;;;;;;;16.35;63.46;95842.63;5029373;28;20218;-69
2023/05/22 04:18:42;;;;;;;18.67;14.80;;;;;;;16.35;63.27;95850.56;5029317;28;20741;-69
2023/05/22 04:21:08;;;;;;;19.37;15.37;;;;;;;16.49;62.88;95850.34;5029196;28;20211;-70
2023/05/22 04:23:34;;;;;;;18.37;16.13;;;;;;;16.83;61.65;95853.91;5029034;28;20557;-70
2023/05/22 04:26:01;;;;;;;19.13;14.30;;;;;;;17.13;60.25;95853.31;5028638;28;20257;-70
2023/05/22 04:28:29;;;;;;;18.37;13.53;;;;;;;17.27;59.42;95848.75;5028662;28;20479;-69
2023/05/22 04:30:57;;;;;;;20.87;14.27;;;;;;;17.34;59.18;95849.94;5028558;28;20439;-69
2023/05/22 04:33:25;;;;;;;19.10;15.13;;;;;;;17.37;59.28;95862.94;5028346;28;20485;-69
2023/05/22 04:35:51;;;;;;;19.10;15.47;;;;;;;17.47;59.17;95863.06;5028192;28;20422;-68
2023/05/22 04:38:17;;;;;;;24.60;14.80;;;;;;;17.49;59.09;95861.97;5028388;28;20429;-69
2023/05/22 04:40:43;;;;;;;28.30;15.73;;;;;;;17.47;59.28;95874.50;5025768;28;20241;-70
2023/05/22 04:43:10;;;;;;;19.20;15.30;;;;;;;17.58;59.09;95864.88;5008674;28;20415;-69
2023/05/22 04:45:36;;;;;;;22.83;14.37;;;;;;;17.74;58.33;95858.19;5008419;28;20497;-69
2023/05/22 04:48:01;;;;;;;19.80;13.70;;;;;;;17.78;58.26;95867.56;5008715;28;20768;-69
2023/05/22 04:50:29;;;;;;;17.40;14.43;;;;;;;17.74;58.12;95874.13;5008220;28;20741;-68
2023/05/22 04:52:56;;;;;;;17.60;14.10;;;;;;;17.87;57.97;95868.66;5024597;28;20551;-69
2023/05/22 04:55:21;;;;;;;16.90;14.00;;;;;;;18.07;57.56;95875.03;5022609;28;20877;-69
2023/05/22 04:57:47;;;;;;;21.50;15.50;;;;;;;18.08;57.86;95878.50;5027952;28;20568;-70
2023/05/22 05:00:14;;;;;;;20.73;17.87;;;;;;;18.20;57.76;95870.34;5027774;28;20491;-70
2023/05/22 05:02:40;;;;;;;20.90;15.87;;;;;;;18.28;57.24;95869.72;5026927;28;20199;-68
2023/05/22 05:05:05;;;;;;;25.20;17.37;;;;;;;18.53;56.72;95863.19;5027581;28;20955;-70
2023/05/22 05:07:31;;;;;;;23.67;16.80;;;;;;;18.48;57.11;95875.19;5028013;28;20679;-70
2023/05/22 05:09:56;;;;;;;22.33;16.40;;;;;;;18.68;56.30;95866.38;5027912;28;20958;-70
2023/05/22 05:12:21;;;;;;;21.83;16.33;;;;;;;18.77;56.12;95864.78;5028010;28;20182;-69
2023/05/22 05:14:47;;;;;;;19.67;14.83;;;;;;;18.88;55.93;95861.22;5028133;28;20203;-69
2023/05/22 05:17:12;;;;;;;20.73;17.40;;;;;;;19.02;55.58;95861.72;5027625;28;20203;-68
2023/05/22 05:19:38;;;;;;;27.17;17.40;;;;;;;19.07;55.38;95858.66;5027756;28;20176;-70
2023/05/22 05:22:03;;;;;;;22.30;16.67;;;;;;;19.07;55.68;95860.47;5027325;28;20835;-69
2023/05/22 05:24:29;;;;;;;19.70;16.80;;;;;;;19.32;55.02;95848.53;5027770;28;20180;-69
2023/05/22 05:26:54;;;;;;;28.77;17.80;;;;;;;19.43;54.65;95853.75;5027943;28;20314;-70
2023/05/22 05:29:20;;;;;;;19.73;17.57;;;;;;;19.75;53.59;95850.06;5027599;28;20168;-70
2023/05/22 05:31:45;;;;;;;24.23;17.07;;;;;;;19.78;53.45;95850.66;5035880;28;20174;-68
2023/05/22 05:34:12;;;;;;;19.50;17.60;;;;;;;19.87;53.13;95855.16;5027728;28;20203;-71
2023/05/22 05:36:37;;;;;;;23.07;17.30;;;;;;;20.04;52.63;95850.97;5027419;28;20203;-68
2023/05/22 05:39:03;;;;;;;28.40;17.70;;;;;;;20.09;52.68;95847.88;5023428;28;20422;-72
2023/05/22 05:41:28;;;;;;;20.87;18.37;;;;;;;20.15;52.35;95859.78;5017105;28;20255;-72
2023/05/22 05:43:58;;;;;;;28.40;18.60;;;;;;;20.23;51.85;95855.44;5026431;28;20171;-72
2023/05/22 05:46:24;;;;;;;24.93;19.50;;;;;;;20.66;50.89;95861.34;5024494;28;20218;-70
2023/05/22 05:48:49;;;;;;;28.90;18.63;;;;;;;20.72;50.48;95860.78;5024129;28;20414;-71
2023/05/22 05:51:15;;;;;;;19.27;17.37;;;;;;;20.71;51.01;95859.09;5021056;28;20165;-72
2023/05/22 05:53:40;;;;;;;16.40;14.80;;;;;;;20.77;50.83;95863.03;5013337;28;20245;-72
2023/05/22 05:56:06;;;;;;;20.50;15.77;;;;;;;20.80;50.88;95850.22;5022246;28;20203;-72
2023/05/22 05:58:32;;;;;;;17.90;16.00;;;;;;;21.02;50.30;95858.88;5023420;28;20195;-73
2023/05/22 06:00:57;;;;;;;19.47;17.03;;;;;;;21.38;49.20;95851.88;5023210;28;20418;-71
2023/05/22 06:03:24;;;;;;;22.93;16.33;;;;;;;21.38;48.88;95853.69;5016403;28;20233;-72
2023/05/22 06:05:50;;;;;;;21.27;16.47;;;;;;;21.50;48.62;95858.72;5022922;28;20688;-71
2023/05/22 06:08:15;;;;;;;20.40;15.60;;;;;;;21.69;48.52;95857.78;5023284;28;20526;-71
2023/05/22 06:10:40;;;;;;;42.97;22.60;;;;;;;21.91;47.79;95856.53;5024209;28;20202;-69
2023/05/22 06:13:06;;;;;;;22.47;18.00;;;;;;;22.22;47.06;95853.53;5023065;28;20949;-70
2023/05/22 06:15:32;;;;;;;27.47;17.27;;;;;;;22.31;46.86;95859.78;5010635;28;20196;-70
2023/05/22 06:17:58;;;;;;;23.13;17.83;;;;;;;22.40;46.84;95861.56;5005438;28;20176;-72
2023/05/22 06:20:24;;;;;;;17.80;15.93;;;;;;;21.80;48.31;95856.72;5005652;28;20172;-71
2023/05/22 06:22:50;;;;;;;25.50;17.17;;;;;;;21.98;48.77;95862.94;5005590;28;21018;-69
2023/05/22 06:25:16;;;;;;;17.80;15.23;;;;;;;21.96;48.78;95864.09;5004839;28;20215;-70
2023/05/22 06:27:41;;;;;;;18.90;15.97;;;;;;;22.31;47.72;95857.13;5005199;28;20656;-71
2023/05/22 06:30:07;;;;;;;38.70;20.47;;;;;;;22.20;47.80;95863.50;5004601;28;20176;-71
2023/05/22 06:32:33;;;;;;;26.40;16.33;;;;;;;21.96;48.85;95856.91;5004946;28;20902;-70
2023/05/22 06:34:58;;;;;;;19.80;16.63;;;;;;;22.40;47.43;95854.38;5008712;28;20472;-70
2023/05/22 06:37:24;;;;;;;33.83;17.27;;;;;;;22.75;46.64;95849.13;5009264;28;20637;-70
2023/05/22 06:39:49;;;;;;;30.00;18.40;;;;;;;22.66;46.73;95852.75;5019535;28;20182;-71
2023/05/22 06:42:15;;;;;;;27.73;18.10;;;;;;;22.89;46.26;95853.91;5029169;28;20175;-71
2023/05/22 06:44:40;;;;;;;23.60;17.27;;;;;;;22.85;45.83;95855.22;5028833;28;20199;-69
2023/05/22 06:47:05;;;;;;;17.00;15.20;;;;;;;23.15;45.69;95853.94;5028784;28;20252;-69
2023/05/22 06:49:31;;;;;;;28.40;15.37;;;;;;;23.37;45.25;95854.38;5028901;28;20178;-70
2023/05/22 06:51:56;;;;;;;23.77;17.40;;;;;;;23.00;46.08;95856.34;5029362;28;20233;-69
2023/05/22 06:54:22;;;;;;;25.40;15.97;;;;;;;23.37;45.54;95859.75;5031412;28;20230;-71
2023/05/22 06:56:47;;;;;;;17.40;14.67;;;;;;;23.51;45.29;95853.78;5031463;28;21131;-70
2023/05/22 06:59:13;;;;;;;20.40;17.27;;;;;;;23.11;46.05;95857.09;5031600;28;20182;-69
2023/05/22 07:01:38;;;;;;;17.27;15.40;;;;;;;23.48;45.42;95853.25;5031902;28;20167;-69
2023/05/22 07:04:04;;;;;;;19.50;16.47;;;;;;;23.32;45.50;95864.75;5031307;28;20171;-71
2023/05/22 07:06:37;;;;;;;19.80;17.00;;;;;;;23.75;44.75;95865.63;5031952;28;20198;-70
2023/05/22 07:09:04;;;;;;;29.83;19.40;;;;;;;23.99;44.23;95864.84;5031945;28;20188;-71
2023/05/22 07:11:30;;;;;;;20.27;17.93;;;;;;;24.11;43.85;95854.66;5031625;28;20428;-71
2023/05/22 07:13:55;;;;;;;21.50;18.20;;;;;;;24.57;42.65;95866.66;5031977;28;20541;-71
2023/05/22 07:16:22;;;;;;;26.53;16.67;;;;;;;24.57;42.43;95861.28;5032208;28;20191;-72
2023/05/22 07:18:47;;;;;;;21.83;18.40;;;;;;;24.28;42.98;95867.94;5032498;28;20175;-71
2023/05/22 07:21:13;;;;;;;29.17;17.47;;;;;;;24.42;42.68;95862.91;5032256;28;21038;-71
2023/05/22 07:23:38;;;;;;;29.80;19.40;;;;;;;24.54;42.88;95864.28;5031634;28;20170;-71
2023/05/22 07:26:03;;;;;;;25.87;18.23;;;;;;;24.67;42.53;95861.97;5032057;28;20191;-71
2023/05/22 07:28:29;;;;;;;20.03;17.53;;;;;;;24.92;41.73;95864.63;5031808;28;20176;-71
2023/05/22 07:30:55;;;;;;;21.87;17.93;;;;;;;24.50;42.67;95858.44;5031469;28;20254;-72
2023/05/22 07:33:21;;;;;;;26.47;17.80;;;;;;;24.41;43.27;95862.09;5031195;28;20208;-70
2023/05/22 07:35:46;;;;;;;20.43;16.23;;;;;;;24.45;43.42;95865.25;5030715;28;20236;-71
2023/05/22 07:38:12;;;;;;;20.27;17.17;;;;;;;24.74;43.12;95866.66;5030574;28;20402;-69
2023/05/22 07:40:37;;;;;;;24.60;17.67;;;;;;;24.25;44.43;95860.22;5024368;28;20607;-70
2023/05/22 07:43:02;;;;;;;20.57;17.23;;;;;;;24.88;43.24;95855.25;5014135;28;20653;-70
2023/05/22 07:45:28;;;;;;;17.77;15.90;;;;;;;25.00;42.94;95861.09;5013278;28;20746;-71
2023/05/22 07:47:53;;;;;;;22.50;17.57;;;;;;;25.08;42.92;95866.44;5013905;28;20275;-73
2023/05/22 07:50:19;;;;;;;18.37;16.43;;;;;;;25.19;42.97;95854.56;5024379;28;20195;-73
2023/05/22 07:52:44;;;;;;;18.13;14.77;;;;;;;25.10;43.40;95856.38;5028555;28;20253;-71
2023/05/22 07:55:10;;;;;;;45.20;17.73;;;;;;;25.02;43.40;95849.19;5028050;28;20191;-71
2023/05/22 07:57:37;;;;;;;38.10;18.93;;;;;;;25.35;43.18;95854.50;5026475;28;20171;-72
2023/05/22 08:00:12;;;;;;;17.80;15.77;;;;;;;25.58;42.61;95849.22;5011619;28;20530;-71
2023/05/22 08:02:38;;;;;;;21.37;16.23;;;;;;;25.47;43.32;95858.50;5034069;28;20428;-70
2023/05/22 08:05:05;;;;;;;32.27;17.87;;;;;;;25.70;42.92;95849.66;5017548;28;20435;-72
2023/05/22 08:07:31;;;;;;;33.97;17.60;;;;;;;25.82;42.37;95847.44;5022609;28;20427;-69
2023/05/22 08:09:57;;;;;;;32.30;16.00;;;;;;;25.86;41.96;95846.94;5030484;28;20426;-70
2023/05/22 08:12:23;;;;;;;19.43;17.13;;;;;;;25.94;42.20;95851.44;5031393;28;20402;-72
2023/05/22 08:14:48;;;;;;;18.73;15.37;;;;;;;25.77;42.16;95848.81;5029693;28;20230;-72
2023/05/22 08:17:13;;;;;;;17.93;16.13;;;;;;;25.85;41.94;95849.78;5036555;28;20222;-71
2023/05/22 08:19:39;;;;;;;25.47;16.80;;;;;;;25.79;41.50;95845.94;5014235;28;20262;-72
2023/05/22 08:22:04;;;;;;;21.57;18.10;;;;;;;26.02;40.80;95851.41;5008631;28;20253;-72
2023/05/22 08:24:30;;;;;;;32.17;19.40;;;;;;;26.07;40.53;95848.16;5011975;28;20168;-72
2023/05/22 08:26:57;;;;;;;21.53;17.17;;;;;;;25.92;41.35;95846.25;5029043;28;20171;-74
2023/05/22 08:29:23;;;;;;;26.90;16.33;;;;;;;26.02;42.32;95847.88;5035456;28;20172;-71
2023/05/22 08:31:48;;;;;;;22.03;16.50;;;;;;;26.01;42.21;95851.56;5031523;28;20411;-70
2023/05/22 08:34:14;;;;;;;33.23;17.00;;;;;;;25.98;42.42;95850.06;5039062;28;20207;-72
2023/05/22 08:36:39;;;;;;;17.20;15.40;;;;;;;25.93;42.58;95847.06;5040592;28;20194;-72
2023/05/22 08:39:06;;;;;;;16.90;15.30;;;;;;;25.86;43.08;95846.06;5034421;28;20291;-72
2023/05/22 08:41:32;;;;;;;17.60;15.83;;;;;;;25.87;43.08;95848.63;5020918;28;20180;-71
2023/05/22 08:43:57;;;;;;;16.57;14.47;;;;;;;25.91;42.58;95847.25;5020771;28;20469;-71
2023/05/22 08:46:27;;;;;;;17.23;14.60;;;;;;;26.09;42.06;95852.34;5026419;28;20195;-72
2023/05/22 08:48:56;;;;;;;26.53;17.47;;;;;;;26.10;41.89;95839.75;5029339;28;20193;-70
2023/05/22 08:51:25;;;;;;;21.53;15.50;;;;;;;26.36;41.43;95837.56;5012888;28;20395;-72
2023/05/22 08:53:55;;;;;;;26.10;16.83;;;;;;;26.44;41.00;95836.66;5019762;28;20470;-74
2023/05/22 08:56:21;;;;;;;20.57;16.50;;;;;;;26.51;40.94;95834.09;5028029;28;20455;-75
2023/05/22 08:58:48;;;;;;;23.00;16.20;;;;;;;26.47;41.00;95836.28;5029916;28;20712;-74
2023/05/22 09:01:15;;;;;;;18.07;16.23;;;;;;;26.27;41.67;95830.56;5013542;28;20451;-71
2023/05/22 09:03:41;;;;;;;28.27;15.07;;;;;;;26.34;41.19;95833.34;5010466;28;20414;-73
2023/05/22 09:06:08;;;;;;;30.73;17.37;;;;;;;26.15;41.93;95830.16;5010317;28;20533;-73
2023/05/22 09:08:33;;;;;;;21.83;16.53;;;;;;;26.10;42.06;95831.69;5012253;28;20167;-73
2023/05/22 09:10:59;;;;;;;22.30;16.17;;;;;;;26.34;41.84;95833.34;5022596;28;20511;-72
2023/05/22 09:13:29;;;;;;;20.60;16.10;;;;;;;26.12;42.02;95835.03;5021718;28;20168;-74
2023/05/22 09:16:08;;;;;;;21.10;14.60;;;;;;;26.22;42.01;95832.97;5027818;28;20640;-70
2023/05/22 09:18:36;;;;;;;19.50;17.30;;;;;;;25.43;42.89;95834.84;5023664;28;21061;-71
2023/05/22 09:21:03;;;;;;;17.50;16.00;;;;;;;25.58;43.30;95837.63;5032009;28;20410;-75
2023/05/22 09:23:28;;;;;;;17.10;15.27;;;;;;;25.90;43.18;95831.31;5031923;28;20437;-74
2023/05/22 09:25:59;;;;;;;24.03;17.77;;;;;;;26.24;42.11;95830.91;5017269;28;20431;-74
2023/05/22 09:28:24;;;;;;;17.90;16.20;;;;;;;26.39;41.59;95826.44;5016312;28;20183;-73
2023/05/22 09:30:54;;;;;;;17.67;15.13;;;;;;;26.56;41.32;95831.72;5016766;28;20940;-74
2023/05/22 09:33:21;;;;;;;26.73;16.40;;;;;;;26.56;40.72;95829.88;5019795;28;20588;-72
2023/05/22 09:35:50;;;;;;;22.77;15.77;;;;;;;26.59;40.74;95826.81;5042308;28;20459;-72
2023/05/22 09:38:16;;;;;;;29.10;17.00;;;;;;;26.56;41.39;95826.34;5028877;28;20398;-74
2023/05/22 09:40:41;;;;;;;22.50;16.33;;;;;;;26.23;42.43;95831.94;5036628;28;20434;-75
2023/05/22 09:43:11;;;;;;;18.10;16.27;;;;;;;26.19;42.18;95834.13;5022520;28;20179;-69
2023/05/22 09:45:38;;;;;;;25.33;17.53;;;;;;;25.44;43.01;95823.94;5031202;28;20230;-74
2023/05/22 09:48:04;;;;;;;32.13;17.60;;;;;;;25.56;43.50;95832.44;5021590;28;20916;-74
2023/05/22 09:50:30;;;;;;;18.43;16.53;;;;;;;25.74;43.17;95824.94;5029778;28;20501;-72
2023/05/22 09:53:00;;;;;;;20.73;17.80;;;;;;;25.77;42.60;95827.31;5032292;28;20430;-72
2023/05/22 09:55:26;;;;;;;17.80;15.77;;;;;;;25.90;43.21;95831.31;5024642;28;20550;-74
2023/05/22 09:57:53;;;;;;;21.83;16.47;;;;;;;26.11;42.04;95830.69;5027851;28;20406;-74
2023/05/22 10:00:19;;;;;;;19.70;16.97;;;;;;;26.27;41.96;95827.03;5030449;28;20433;-74
2023/05/22 10:02:46;;;;;;;24.87;15.60;;;;;;;26.48;41.53;95820.97;5021822;28;20403;-74
2023/05/22 10:05:22;;;;;;;19.30;16.83;;;;;;;26.43;41.41;95826.91;5026953;28;20952;-71
2023/05/22 10:07:55;;;;;;;19.13;16.73;;;;;;;26.56;41.14;95832.56;5032610;28;20791;-69
2023/05/22 10:10:22;;;;;;;29.10;17.57;;;;;;;26.72;40.74;95826.22;5019472;28;20410;-72
2023/05/22 10:12:52;;;;;;;19.23;17.30;;;;;;;26.61;41.00;95823.94;5026736;28;20463;-70
2023/05/22 10:15:19;;;;;;;24.90;16.43;;;;;;;26.85;40.69;95824.75;5025305;28;20553;-70
2023/05/22 10:17:46;;;;;;;21.53;16.70;;;;;;;26.91;40.11;95822.16;5023627;28;20425;-71
2023/05/22 10:20:12;;;;;;;33.60;16.40;;;;;;;26.89;40.75;95820.69;5006828;28;20433;-72
2023/05/22 10:22:37;;;;;;;21.97;16.90;;;;;;;26.93;40.47;95824.66;5006101;28;20419;-70
2023/05/22 10:25:04;;;;;;;24.90;16.27;;;;;;;26.88;40.53;95816.28;5006775;28;20199;-70
2023/05/22 10:27:30;;;;;;;21.10;16.10;;;;;;;26.78;40.22;95814.69;5015691;28;20175;-70
2023/05/22 10:30:07;;;;;;;24.47;15.70;;;;;;;26.70;40.62;95812.09;5024289;28;20475;-71
2023/05/22 10:32:40;;;;;;;25.63;17.13;;;;;;;26.77;40.28;95812.22;5026901;28;20229;-70
2023/05/22 10:35:35;;;;;;;21.40;15.83;;;;;;;26.86;40.10;95811.13;5026319;28;20827;-71
2023/05/22 10:38:37;;;;;;;18.83;16.80;;;;;;;26.84;39.78;95802.38;5027089;28;20413;-71
2023/05/22 10:41:03;;;;;;;22.13;15.63;;;;;;;26.74;40.41;95813.41;5007338;28;20413;-67
2023/05/22 10:43:31;;;;;;;21.53;16.93;;;;;;;26.82;40.38;95807.94;5006733;28;20521;-69
2023/05/22 10:46:02;;;;;;;21.90;16.00;;;;;;;26.92;40.16;95801.44;5006475;28;21412;-70
2023/05/22 10:48:29;;;;;;;26.00;18.93;;;;;;;26.72;39.96;95806.53;5007068;28;20419;-69
2023/05/22 10:50:55;;;;;;;23.60;17.70;;;;;;;26.49;40.69;95803.84;5006856;28;21048;-71
2023/05/22 10:53:30;;;;;;;26.73;17.33;;;;;;;26.21;41.60;95807.06;5006614;28;20415;-71
2023/05/22 10:55:57;;;;;;;19.30;17.30;;;;;;;26.16;41.89;95799.53;5006976;28;20204;-71
2023/05/22 10:58:31;;;;;;;24.40;15.50;;;;;;;26.18;41.88;95792.13;5007703;28;20411;-70
2023/05/22 11:01:10;;;;;;;29.43;18.80;;;;;;;25.97;41.65;95800.84;5007329;28;20434;-71
2023/05/22 11:03:54;;;;;;;20.03;16.50;;;;;;;25.89;41.70;95797.34;5007177;28;20423;-71
2023/05/22 11:06:33;;;;;;;22.70;19.93;;;;;;;25.88;41.94;95796.53;5007669;28;20960;-69
2023/05/22 11:08:58;;;;;;;19.03;17.07;;;;;;;26.16;41.63;95788.78;5007434;28;20418;-70
2023/05/22 11:11:25;;;;;;;16.43;14.93;;;;;;;26.39;41.75;95782.56;5006788;28;20411;-69
2023/05/22 11:13:51;;;;;;;16.47;14.70;;;;;;;26.75;40.48;95779.25;5006472;28;20290;-71
2023/05/22 11:16:17;;;;;;;20.00;18.20;;;;;;;26.24;41.48;95784.34;5006677;28;20459;-71
2023/05/22 11:18:43;;;;;;;21.37;18.93;;;;;;;26.26;41.24;95782.31;5006943;28;20446;-70